sensor_id;sensor_type;location;lat;lon;timestamp;pressure;altitude;pressure_sealevel;temperature;humidity
706;BME280;21234;48.690;9.016;2023-01-25T00:00:30;97611.66;;;0.61;100.00
706;BME280;21234;48.690;9.016;2023-01-25T00:02:56;97612.94;;;0.57;100.00
706;BME280;21234;48.690;9.016;2023-01-25T00:05:23;97609.13;;;0.60;100.00
706;BME280;21234;48.690;9.016;2023-01-25T00:07:50;97605.47;;;0.61;100.00
706;BME280;21234;48.690;9.016;2023-01-25T00:10:17;97606.66;;;0.66;100.00
706;BME280;21234;48.690;9.016;2023-01-25T00:12:45;97609.16;;;0.68;100.00
706;BME280;21234;48.690;9.016;2023-01-25T00:15:12;97600.25;;;0.59;100.00
706;BME280;21234;48.690;9.016;2023-01-25T00:17:39;97604.94;;;0.57;100.00
706;BME280;21234;48.690;9.016;2023-01-25T00:20:07;97597.28;;;0.62;100.00
706;BME280;21234;48.690;9.016;2023-01-25T00:22:34;97582.75;;;0.65;100.00
706;BME280;21234;48.690;9.016;2023-01-25T00:25:00;97582.22;;;0.61;100.00
706;BME280;21234;48.690;9.016;2023-01-25T00:27:27;97577.72;;;0.62;100.00
706;BME280;21234;48.690;9.016;2023-01-25T00:29:55;97571.19;;;0.64;100.00
706;BME280;21234;48.690;9.016;2023-01-25T00:32:31;97577.28;;;0.75;100.00
706;BME280;21234;48.690;9.016;2023-01-25T00:34:58;97578.94;;;0.76;100.00
706;BME280;21234;48.690;9.016;2023-01-25T00:37:29;97581.94;;;0.73;100.00
706;BME280;21234;48.690;9.016;2023-01-25T00:39:56;97576.44;;;0.74;100.00
706;BME280;21234;48.690;9.016;2023-01-25T00:42:22;97575.97;;;0.79;100.00
706;BME280;21234;48.690;9.016;2023-01-25T00:44:49;97581.16;;;0.80;100.00
706;BME280;21234;48.690;9.016;2023-01-25T00:47:17;97584.84;;;0.79;100.00
706;BME280;21234;48.690;9.016;2023-01-25T00:49:44;97588.13;;;0.73;100.00
706;BME280;21234;48.690;9.016;2023-01-25T00:52:12;97588.97;;;0.74;100.00
706;BME280;21234;48.690;9.016;2023-01-25T00:54:39;97582.94;;;0.72;100.00
706;BME280;21234;48.690;9.016;2023-01-25T00:57:06;97579.94;;;0.75;100.00
706;BME280;21234;48.690;9.016;2023-01-25T00:59:33;97566.94;;;0.80;100.00
706;BME280;21234;48.690;9.016;2023-01-25T01:02:00;97567.03;;;0.70;100.00
706;BME280;21234;48.690;9.016;2023-01-25T01:04:29;97565.34;;;0.69;100.00
706;BME280;21234;48.690;9.016;2023-01-25T01:06:56;97562.00;;;0.67;100.00
706;BME280;21234;48.690;9.016;2023-01-25T01:09:23;97557.31;;;0.69;100.00
706;BME280;21234;48.690;9.016;2023-01-25T01:11:50;97559.22;;;0.77;100.00
706;BME280;21234;48.690;9.016;2023-01-25T01:14:17;97563.56;;;0.78;100.00
706;BME280;21234;48.690;9.016;2023-01-25T01:16:44;97558.00;;;0.71;100.00
706;BME280;21234;48.690;9.016;2023-01-25T01:19:10;97561.38;;;0.73;100.00
706;BME280;21234;48.690;9.016;2023-01-25T01:21:40;97565.34;;;0.69;100.00
706;BME280;21234;48.690;9.016;2023-01-25T01:24:08;97560.22;;;0.76;100.00
706;BME280;21234;48.690;9.016;2023-01-25T01:26:35;97562.88;;;0.76;100.00
706;BME280;21234;48.690;9.016;2023-01-25T01:29:02;97557.84;;;0.73;100.00
706;BME280;21234;48.690;9.016;2023-01-25T01:31:28;97554.03;;;0.75;100.00
706;BME280;21234;48.690;9.016;2023-01-25T01:33:56;97560.91;;;0.78;100.00
706;BME280;21234;48.690;9.016;2023-01-25T01:36:26;97560.22;;;0.76;100.00
706;BME280;21234;48.690;9.016;2023-01-25T01:38:54;97559.91;;;0.79;100.00
706;BME280;21234;48.690;9.016;2023-01-25T01:41:21;97566.72;;;0.73;100.00
706;BME280;21234;48.690;9.016;2023-01-25T01:43:47;97566.19;;;0.70;100.00
706;BME280;21234;48.690;9.016;2023-01-25T01:46:16;97560.38;;;0.74;100.00
706;BME280;21234;48.690;9.016;2023-01-25T01:48:49;97565.03;;;0.72;100.00
706;BME280;21234;48.690;9.016;2023-01-25T01:51:20;97565.03;;;0.72;100.00
706;BME280;21234;48.690;9.016;2023-01-25T01:53:52;97559.06;;;0.78;100.00
706;BME280;21234;48.690;9.016;2023-01-25T01:56:26;97557.38;;;0.77;100.00
706;BME280;21234;48.690;9.016;2023-01-25T01:58:55;97551.03;;;0.78;100.00
706;BME280;21234;48.690;9.016;2023-01-25T02:01:24;97550.09;;;0.87;100.00
706;BME280;21234;48.690;9.016;2023-01-25T02:03:51;97557.75;;;0.82;100.00
706;BME280;21234;48.690;9.016;2023-01-25T02:06:25;97561.91;;;0.77;100.00
706;BME280;21234;48.690;9.016;2023-01-25T02:08:54;97560.06;;;0.77;100.00
706;BME280;21234;48.690;9.016;2023-01-25T02:11:23;97568.63;;;0.81;100.00
706;BME280;21234;48.690;9.016;2023-01-25T02:13:52;97570.97;;;0.84;100.00
706;BME280;21234;48.690;9.016;2023-01-25T02:16:24;97564.25;;;0.80;100.00
706;BME280;21234;48.690;9.016;2023-01-25T02:18:53;97560.91;;;0.78;100.00
706;BME280;21234;48.690;9.016;2023-01-25T02:21:22;97557.22;;;0.79;100.00
706;BME280;21234;48.690;9.016;2023-01-25T02:23:53;97557.38;;;0.77;100.00
706;BME280;21234;48.690;9.016;2023-01-25T02:26:23;97551.72;;;0.80;100.00
706;BME280;21234;48.690;9.016;2023-01-25T02:28:53;97549.50;;;0.76;100.00
706;BME280;21234;48.690;9.016;2023-01-25T02:31:21;97556.63;;;0.67;100.00
706;BME280;21234;48.690;9.016;2023-01-25T02:33:48;97550.28;;;0.68;100.00
706;BME280;21234;48.690;9.016;2023-01-25T02:36:19;97538.59;;;0.69;100.00
706;BME280;21234;48.690;9.016;2023-01-25T02:38:50;97537.75;;;0.68;100.00
706;BME280;21234;48.690;9.016;2023-01-25T02:41:24;97530.72;;;0.67;100.00
706;BME280;21234;48.690;9.016;2023-01-25T02:43:53;97530.72;;;0.67;100.00
706;BME280;21234;48.690;9.016;2023-01-25T02:46:23;97536.22;;;0.66;100.00
706;BME280;21234;48.690;9.016;2023-01-25T02:48:52;97535.56;;;0.64;100.00
706;BME280;21234;48.690;9.016;2023-01-25T02:51:20;97540.25;;;0.70;100.00
706;BME280;21234;48.690;9.016;2023-01-25T02:53:46;97532.72;;;0.65;100.00
706;BME280;21234;48.690;9.016;2023-01-25T02:56:13;97539.59;;;0.68;100.00
706;BME280;21234;48.690;9.016;2023-01-25T02:58:41;97549.28;;;0.69;100.00
706;BME280;21234;48.690;9.016;2023-01-25T03:01:08;97529.72;;;0.68;100.00
706;BME280;21234;48.690;9.016;2023-01-25T03:03:35;97531.91;;;0.73;100.00
706;BME280;21234;48.690;9.016;2023-01-25T03:06:02;97532.53;;;0.67;100.00
706;BME280;21234;48.690;9.016;2023-01-25T03:08:29;97523.38;;;0.70;100.00
706;BME280;21234;48.690;9.016;2023-01-25T03:10:56;97518.84;;;0.70;100.00
706;BME280;21234;48.690;9.016;2023-01-25T03:13:23;97519.00;;;0.68;100.00
706;BME280;21234;48.690;9.016;2023-01-25T03:15:57;97523.22;;;0.71;100.00
706;BME280;21234;48.690;9.016;2023-01-25T03:18:24;97512.72;;;0.78;100.00
706;BME280;21234;48.690;9.016;2023-01-25T03:20:51;97507.31;;;0.70;100.00
706;BME280;21234;48.690;9.016;2023-01-25T03:23:18;97512.81;;;0.68;100.00
706;BME280;21234;48.690;9.016;2023-01-25T03:25:44;97503.63;;;0.71;100.00
706;BME280;21234;48.690;9.016;2023-01-25T03:28:11;97503.47;;;0.72;100.00
706;BME280;21234;48.690;9.016;2023-01-25T03:30:38;97496.06;;;0.66;100.00
706;BME280;21234;48.690;9.016;2023-01-25T03:33:06;97494.25;;;0.66;100.00
706;BME280;21234;48.690;9.016;2023-01-25T03:35:32;97494.06;;;0.60;100.00
706;BME280;21234;48.690;9.016;2023-01-25T03:37:59;97495.09;;;0.67;100.00
706;BME280;21234;48.690;9.016;2023-01-25T03:40:26;97488.56;;;0.70;100.00
706;BME280;21234;48.690;9.016;2023-01-25T03:42:52;97493.94;;;0.70;100.00
706;BME280;21234;48.690;9.016;2023-01-25T03:45:19;97492.63;;;0.74;100.00
706;BME280;21234;48.690;9.016;2023-01-25T03:47:46;97491.63;;;0.75;100.00
706;BME280;21234;48.690;9.016;2023-01-25T03:50:14;97493.94;;;0.70;100.00
706;BME280;21234;48.690;9.016;2023-01-25T03:52:41;97492.25;;;0.68;100.00
706;BME280;21234;48.690;9.016;2023-01-25T03:55:10;97494.94;;;0.68;100.00
706;BME280;21234;48.690;9.016;2023-01-25T03:57:36;97497.28;;;0.72;100.00
706;BME280;21234;48.690;9.016;2023-01-25T04:00:04;97487.78;;;0.77;100.00
706;BME280;21234;48.690;9.016;2023-01-25T04:02:31;97493.97;;;0.78;100.00
706;BME280;21234;48.690;9.016;2023-01-25T04:04:57;97495.44;;;0.72;100.00
706;BME280;21234;48.690;9.016;2023-01-25T04:07:25;97484.06;;;0.70;100.00
706;BME280;21234;48.690;9.016;2023-01-25T04:09:52;97489.84;;;0.57;100.00
706;BME280;21234;48.690;9.016;2023-01-25T04:12:19;97482.19;;;0.62;100.00
706;BME280;21234;48.690;9.016;2023-01-25T04:14:45;97486.88;;;0.60;100.00
706;BME280;21234;48.690;9.016;2023-01-25T04:17:12;97491.22;;;0.61;100.00
706;BME280;21234;48.690;9.016;2023-01-25T04:19:39;97487.56;;;0.62;100.00
706;BME280;21234;48.690;9.016;2023-01-25T04:22:05;97487.19;;;0.57;100.00
706;BME280;21234;48.690;9.016;2023-01-25T04:24:34;97486.72;;;0.62;100.00
706;BME280;21234;48.690;9.016;2023-01-25T04:27:01;97484.72;;;0.64;100.00
706;BME280;21234;48.690;9.016;2023-01-25T04:29:28;97488.88;;;0.66;100.00
706;BME280;21234;48.690;9.016;2023-01-25T04:31:55;97482.03;;;0.64;100.00
706;BME280;21234;48.690;9.016;2023-01-25T04:34:21;97495.75;;;0.61;100.00
706;BME280;21234;48.690;9.016;2023-01-25T04:36:48;97477.53;;;0.64;100.00
706;BME280;21234;48.690;9.016;2023-01-25T04:39:15;97482.50;;;0.59;100.00
706;BME280;21234;48.690;9.016;2023-01-25T04:41:43;97475.19;;;0.70;100.00
706;BME280;21234;48.690;9.016;2023-01-25T04:44:10;97487.22;;;0.65;100.00
706;BME280;21234;48.690;9.016;2023-01-25T04:46:36;97477.03;;;0.69;100.00
706;BME280;21234;48.690;9.016;2023-01-25T04:49:03;97473.50;;;0.68;100.00
706;BME280;21234;48.690;9.016;2023-01-25T04:51:30;97472.84;;;0.66;100.00
706;BME280;21234;48.690;9.016;2023-01-25T04:53:56;97478.03;;;0.68;100.00
706;BME280;21234;48.690;9.016;2023-01-25T04:56:23;97473.81;;;0.65;100.00
706;BME280;21234;48.690;9.016;2023-01-25T04:58:52;97483.03;;;0.63;100.00
706;BME280;21234;48.690;9.016;2023-01-25T05:01:18;97473.50;;;0.60;100.00
706;BME280;21234;48.690;9.016;2023-01-25T05:03:45;97475.16;;;0.61;100.00
706;BME280;21234;48.690;9.016;2023-01-25T05:06:12;97475.84;;;0.63;100.00
706;BME280;21234;48.690;9.016;2023-01-25T05:08:39;97462.94;;;0.59;100.00
706;BME280;21234;48.690;9.016;2023-01-25T05:11:05;97470.34;;;0.65;100.00
706;BME280;21234;48.690;9.016;2023-01-25T05:13:32;97465.63;;;0.67;100.00
706;BME280;21234;48.690;9.016;2023-01-25T05:16:00;97470.84;;;0.68;100.00
706;BME280;21234;48.690;9.016;2023-01-25T05:18:27;97465.81;;;0.65;100.00
706;BME280;21234;48.690;9.016;2023-01-25T05:20:54;97461.63;;;0.63;100.00
706;BME280;21234;48.690;9.016;2023-01-25T05:23:21;97468.16;;;0.68;100.00
706;BME280;21234;48.690;9.016;2023-01-25T05:25:48;97468.31;;;0.67;100.00
706;BME280;21234;48.690;9.016;2023-01-25T05:28:32;97460.94;;;0.61;100.00
706;BME280;21234;48.690;9.016;2023-01-25T05:31:03;97465.63;;;0.67;100.00
706;BME280;21234;48.690;9.016;2023-01-25T05:33:30;97458.97;;;0.63;100.00
706;BME280;21234;48.690;9.016;2023-01-25T05:35:57;97463.81;;;0.67;100.00
706;BME280;21234;48.690;9.016;2023-01-25T05:38:24;97461.81;;;0.70;100.00
706;BME280;21234;48.690;9.016;2023-01-25T05:40:50;97458.59;;;0.66;100.00
706;BME280;21234;48.690;9.016;2023-01-25T05:43:17;97464.47;;;0.70;100.00
706;BME280;21234;48.690;9.016;2023-01-25T05:45:50;97464.16;;;0.73;100.00
706;BME280;21234;48.690;9.016;2023-01-25T05:48:19;97463.78;;;0.59;100.00
706;BME280;21234;48.690;9.016;2023-01-25T05:50:45;97459.44;;;0.58;100.00
706;BME280;21234;48.690;9.016;2023-01-25T05:53:12;97462.31;;;0.65;100.00
706;BME280;21234;48.690;9.016;2023-01-25T05:55:39;97457.97;;;0.64;100.00
706;BME280;21234;48.690;9.016;2023-01-25T05:58:06;97457.28;;;0.62;100.00
706;BME280;21234;48.690;9.016;2023-01-25T06:00:33;97460.75;;;0.54;100.00
706;BME280;21234;48.690;9.016;2023-01-25T06:03:00;97454.06;;;0.58;100.00
706;BME280;21234;48.690;9.016;2023-01-25T06:05:28;97453.56;;;0.55;100.00
706;BME280;21234;48.690;9.016;2023-01-25T06:07:56;97458.28;;;0.61;100.00
706;BME280;21234;48.690;9.016;2023-01-25T06:10:23;97448.03;;;0.56;100.00
706;BME280;21234;48.690;9.016;2023-01-25T06:12:50;97449.09;;;0.63;100.00
706;BME280;21234;48.690;9.016;2023-01-25T06:15:16;97448.09;;;0.64;100.00
706;BME280;21234;48.690;9.016;2023-01-25T06:17:43;97454.03;;;0.50;100.00
706;BME280;21234;48.690;9.016;2023-01-25T06:20:11;97453.72;;;0.53;100.00
706;BME280;21234;48.690;9.016;2023-01-25T06:22:39;97447.38;;;0.54;100.00
706;BME280;21234;48.690;9.016;2023-01-25T06:25:06;97449.19;;;0.54;100.00
706;BME280;21234;48.690;9.016;2023-01-25T06:27:33;97454.41;;;0.55;100.00
706;BME280;21234;48.690;9.016;2023-01-25T06:30:00;97448.69;;;0.50;100.00
706;BME280;21234;48.690;9.016;2023-01-25T06:32:33;97445.94;;;0.42;100.00
706;BME280;21234;48.690;9.016;2023-01-25T06:35:02;97445.09;;;0.42;100.00
706;BME280;21234;48.690;9.016;2023-01-25T06:37:28;97444.56;;;0.38;100.00
706;BME280;21234;48.690;9.016;2023-01-25T06:39:56;97444.06;;;0.34;100.00
706;BME280;21234;48.690;9.016;2023-01-25T06:42:23;97444.56;;;0.38;100.00
706;BME280;21234;48.690;9.016;2023-01-25T06:44:50;97443.75;;;0.38;100.00
706;BME280;21234;48.690;9.016;2023-01-25T06:47:17;97445.22;;;0.32;100.00
706;BME280;21234;48.690;9.016;2023-01-25T06:49:43;97438.53;;;0.36;100.00
706;BME280;21234;48.690;9.016;2023-01-25T06:52:10;97446.31;;;0.47;100.00
706;BME280;21234;48.690;9.016;2023-01-25T06:54:37;97443.53;;;0.57;100.00
706;BME280;21234;48.690;9.016;2023-01-25T06:57:05;97437.50;;;0.55;100.00
706;BME280;21234;48.690;9.016;2023-01-25T06:59:34;97438.34;;;0.55;100.00
706;BME280;21234;48.690;9.016;2023-01-25T07:02:01;97433.19;;;0.36;100.00
706;BME280;21234;48.690;9.016;2023-01-25T07:04:27;97429.91;;;0.42;100.00
706;BME280;21234;48.690;9.016;2023-01-25T07:06:54;97429.75;;;0.44;100.00
706;BME280;21234;48.690;9.016;2023-01-25T07:09:21;97418.97;;;0.36;100.00
706;BME280;21234;48.690;9.016;2023-01-25T07:11:48;97420.66;;;0.37;100.00
706;BME280;21234;48.690;9.016;2023-01-25T07:14:17;97414.31;;;0.38;100.00
706;BME280;21234;48.690;9.016;2023-01-25T07:16:44;97413.53;;;0.45;100.00
706;BME280;21234;48.690;9.016;2023-01-25T07:19:11;97419.97;;;0.34;100.00
706;BME280;21234;48.690;9.016;2023-01-25T07:21:38;97416.88;;;0.47;100.00
706;BME280;21234;48.690;9.016;2023-01-25T07:24:05;97410.06;;;0.53;100.00
706;BME280;21234;48.690;9.016;2023-01-25T07:26:32;97413.16;;;0.40;100.00
706;BME280;21234;48.690;9.016;2023-01-25T07:28:59;97412.31;;;0.31;100.00
706;BME280;21234;48.690;9.016;2023-01-25T07:31:27;97415.16;;;0.38;100.00
706;BME280;21234;48.690;9.016;2023-01-25T07:33:55;97419.66;;;0.38;100.00
706;BME280;21234;48.690;9.016;2023-01-25T07:36:23;97417.25;;;0.52;100.00
706;BME280;21234;48.690;9.016;2023-01-25T07:38:52;97404.22;;;0.57;100.00
706;BME280;21234;48.690;9.016;2023-01-25T07:41:19;97412.41;;;0.56;100.00
706;BME280;21234;48.690;9.016;2023-01-25T07:43:46;97407.69;;;0.50;100.00
706;BME280;21234;48.690;9.016;2023-01-25T07:46:13;97408.69;;;0.49;100.00
706;BME280;21234;48.690;9.016;2023-01-25T07:48:45;97407.75;;;0.58;100.00
706;BME280;21234;48.690;9.016;2023-01-25T07:51:13;97408.22;;;0.53;100.00
706;BME280;21234;48.690;9.016;2023-01-25T07:53:52;97408.50;;;0.42;100.00
706;BME280;21234;48.690;9.016;2023-01-25T07:56:21;97407.78;;;0.32;100.00
706;BME280;21234;48.690;9.016;2023-01-25T07:58:48;97405.06;;;0.24;100.00
706;BME280;21234;48.690;9.016;2023-01-25T08:01:16;97401.38;;;0.25;100.00
706;BME280;21234;48.690;9.016;2023-01-25T08:03:45;97403.75;;;0.28;100.00
706;BME280;21234;48.690;9.016;2023-01-25T08:06:12;97401.75;;;0.30;100.00
706;BME280;21234;48.690;9.016;2023-01-25T08:08:41;97406.81;;;0.41;100.00
706;BME280;21234;48.690;9.016;2023-01-25T08:11:10;97410.31;;;0.42;100.00
706;BME280;21234;48.690;9.016;2023-01-25T08:13:38;97409.38;;;0.51;100.00
706;BME280;21234;48.690;9.016;2023-01-25T08:16:05;97411.41;;;0.57;100.00
706;BME280;21234;48.690;9.016;2023-01-25T08:18:32;97400.56;;;0.58;100.00
706;BME280;21234;48.690;9.016;2023-01-25T08:21:00;97409.59;;;0.65;100.00
706;BME280;21234;48.690;9.016;2023-01-25T08:23:27;97411.63;;;0.63;100.00
706;BME280;21234;48.690;9.016;2023-01-25T08:25:54;97414.25;;;0.55;100.00
706;BME280;21234;48.690;9.016;2023-01-25T08:28:22;97422.38;;;0.46;100.00
706;BME280;21234;48.690;9.016;2023-01-25T08:30:48;97413.22;;;0.48;100.00
706;BME280;21234;48.690;9.016;2023-01-25T08:33:15;97420.09;;;0.51;100.00
706;BME280;21234;48.690;9.016;2023-01-25T08:35:42;97417.78;;;0.56;100.00
706;BME280;21234;48.690;9.016;2023-01-25T08:38:10;97422.16;;;0.65;100.00
706;BME280;21234;48.690;9.016;2023-01-25T08:40:36;97420.66;;;0.62;100.00
706;BME280;21234;48.690;9.016;2023-01-25T08:43:03;97409.53;;;0.49;100.00
706;BME280;21234;48.690;9.016;2023-01-25T08:45:30;97402.81;;;0.45;100.00
706;BME280;21234;48.690;9.016;2023-01-25T08:48:01;97403.72;;;0.54;100.00
706;BME280;21234;48.690;9.016;2023-01-25T08:50:28;97404.06;;;0.59;100.00
706;BME280;21234;48.690;9.016;2023-01-25T08:52:54;97393.16;;;0.52;100.00
706;BME280;21234;48.690;9.016;2023-01-25T08:55:22;97393.53;;;0.57;100.00
706;BME280;21234;48.690;9.016;2023-01-25T08:57:49;97391.00;;;0.56;100.00
706;BME280;21234;48.690;9.016;2023-01-25T09:00:16;97389.69;;;0.60;100.00
706;BME280;21234;48.690;9.016;2023-01-25T09:02:44;97388.19;;;0.65;100.00
706;BME280;21234;48.690;9.016;2023-01-25T09:05:10;97383.50;;;0.67;100.00
706;BME280;21234;48.690;9.016;2023-01-25T09:07:37;97372.50;;;0.71;100.00
706;BME280;21234;48.690;9.016;2023-01-25T09:10:04;97367.66;;;0.74;100.00
706;BME280;21234;48.690;9.016;2023-01-25T09:12:34;97372.84;;;0.76;100.00
706;BME280;21234;48.690;9.016;2023-01-25T09:15:01;97377.69;;;0.72;100.00
706;BME280;21234;48.690;9.016;2023-01-25T09:17:28;97372.91;;;0.50;100.00
706;BME280;21234;48.690;9.016;2023-01-25T09:19:55;97371.72;;;0.44;100.00
706;BME280;21234;48.690;9.016;2023-01-25T09:22:22;97373.41;;;0.45;100.00
706;BME280;21234;48.690;9.016;2023-01-25T09:24:49;97370.59;;;0.55;100.00
706;BME280;21234;48.690;9.016;2023-01-25T09:27:18;97364.63;;;0.61;100.00
706;BME280;21234;48.690;9.016;2023-01-25T09:29:46;97378.00;;;0.69;100.00
706;BME280;21234;48.690;9.016;2023-01-25T09:32:13;97370.00;;;0.77;100.00
706;BME280;21234;48.690;9.016;2023-01-25T09:34:39;97373.41;;;0.87;100.00
706;BME280;21234;48.690;9.016;2023-01-25T09:37:06;97369.88;;;0.87;100.00
706;BME280;21234;48.690;9.016;2023-01-25T09:39:33;97366.34;;;0.78;100.00
706;BME280;21234;48.690;9.016;2023-01-25T09:42:21;97368.81;;;0.72;100.00
706;BME280;21234;48.690;9.016;2023-01-25T09:45:10;97368.28;;;0.68;100.00
706;BME280;21234;48.690;9.016;2023-01-25T09:47:46;97371.66;;;0.62;100.00
706;BME280;21234;48.690;9.016;2023-01-25T09:50:24;97373.81;;;0.58;100.00
706;BME280;21234;48.690;9.016;2023-01-25T09:53:06;97370.59;;;0.55;100.00
706;BME280;21234;48.690;9.016;2023-01-25T09:55:36;97370.13;;;0.59;100.00
706;BME280;21234;48.690;9.016;2023-01-25T09:58:11;97368.81;;;0.72;100.00
706;BME280;21234;48.690;9.016;2023-01-25T10:00:43;97368.50;;;0.75;100.00
706;BME280;21234;48.690;9.016;2023-01-25T10:03:19;97368.16;;;0.78;100.00
706;BME280;21234;48.690;9.016;2023-01-25T10:05:49;97369.84;;;0.79;100.00
706;BME280;21234;48.690;9.016;2023-01-25T10:08:22;97367.84;;;0.81;100.00
706;BME280;21234;48.690;9.016;2023-01-25T10:10:54;97366.00;;;0.81;100.00
706;BME280;21234;48.690;9.016;2023-01-25T10:13:24;97366.84;;;0.82;100.00
706;BME280;21234;48.690;9.016;2023-01-25T10:16:00;97359.16;;;0.87;100.00
706;BME280;21234;48.690;9.016;2023-01-25T10:18:32;97358.16;;;0.88;100.00
706;BME280;21234;48.690;9.016;2023-01-25T10:21:03;97354.31;;;0.82;100.00
706;BME280;21234;48.690;9.016;2023-01-25T10:23:48;97356.81;;;0.84;100.00
706;BME280;21234;48.690;9.016;2023-01-25T10:26:23;97363.53;;;0.88;100.00
706;BME280;21234;48.690;9.016;2023-01-25T10:28:56;97356.34;;;0.88;100.00
706;BME280;21234;48.690;9.016;2023-01-25T10:31:32;97355.09;;;0.75;100.00
706;BME280;21234;48.690;9.016;2023-01-25T10:34:01;97342.53;;;0.67;100.00
706;BME280;21234;48.690;9.016;2023-01-25T10:36:35;97345.38;;;0.65;100.00
706;BME280;21234;48.690;9.016;2023-01-25T10:39:03;97334.03;;;0.72;100.00
706;BME280;21234;48.690;9.016;2023-01-25T10:41:36;97334.34;;;0.68;100.00
706;BME280;21234;48.690;9.016;2023-01-25T10:44:05;97333.19;;;0.71;100.00
706;BME280;21234;48.690;9.016;2023-01-25T10:46:55;97330.03;;;0.76;100.00
706;BME280;21234;48.690;9.016;2023-01-25T10:49:25;97321.81;;;0.77;100.00
706;BME280;21234;48.690;9.016;2023-01-25T10:51:53;97315.81;;;0.75;100.00
706;BME280;21234;48.690;9.016;2023-01-25T10:54:22;97315.47;;;0.78;100.00
706;BME280;21234;48.690;9.016;2023-01-25T10:56:49;97310.59;;;0.74;100.00
706;BME280;21234;48.690;9.016;2023-01-25T10:59:20;97311.94;;;0.61;100.00
706;BME280;21234;48.690;9.016;2023-01-25T11:01:49;97305.41;;;0.72;100.00
706;BME280;21234;48.690;9.016;2023-01-25T11:04:29;97307.28;;;0.80;100.00
706;BME280;21234;48.690;9.016;2023-01-25T11:06:57;97299.91;;;0.74;100.00
706;BME280;21234;48.690;9.016;2023-01-25T11:09:35;97301.91;;;0.72;100.00
706;BME280;21234;48.690;9.016;2023-01-25T11:12:04;97308.44;;;0.77;100.00
706;BME280;21234;48.690;9.016;2023-01-25T11:14:32;97301.28;;;0.86;100.00
706;BME280;21234;48.690;9.016;2023-01-25T11:17:03;97302.09;;;0.78;100.00
706;BME280;21234;48.690;9.016;2023-01-25T11:19:33;97299.25;;;0.80;100.00
706;BME280;21234;48.690;9.016;2023-01-25T11:22:01;97297.56;;;0.62;100.00
706;BME280;21234;48.690;9.016;2023-01-25T11:24:29;97298.16;;;0.48;100.00
706;BME280;21234;48.690;9.016;2023-01-25T11:27:18;97303.69;;;0.47;100.00
706;BME280;21234;48.690;9.016;2023-01-25T11:30:06;97294.94;;;0.37;100.00
706;BME280;21234;48.690;9.016;2023-01-25T11:32:37;97298.44;;;0.29;100.00
706;BME280;21234;48.690;9.016;2023-01-25T11:35:05;97292.09;;;0.30;100.00
706;BME280;21234;48.690;9.016;2023-01-25T11:37:48;97281.72;;;0.35;100.00
706;BME280;21234;48.690;9.016;2023-01-25T11:40:27;97289.63;;;0.45;100.00
706;BME280;21234;48.690;9.016;2023-01-25T11:43:02;97270.03;;;0.36;100.00
706;BME280;21234;48.690;9.016;2023-01-25T11:46:02;97267.91;;;0.48;100.00
706;BME280;21234;48.690;9.016;2023-01-25T11:48:49;97263.25;;;0.58;100.00
706;BME280;21234;48.690;9.016;2023-01-25T11:51:22;97268.78;;;0.64;100.00
706;BME280;21234;48.690;9.016;2023-01-25T11:54:02;97258.56;;;0.68;100.00
706;BME280;21234;48.690;9.016;2023-01-25T11:56:42;97257.25;;;0.64;100.00
706;BME280;21234;48.690;9.016;2023-01-25T11:59:26;97252.41;;;0.76;100.00
706;BME280;21234;48.690;9.016;2023-01-25T12:02:04;97245.34;;;0.66;100.00
706;BME280;21234;48.690;9.016;2023-01-25T12:05:01;97237.31;;;0.50;100.00
706;BME280;21234;48.690;9.016;2023-01-25T12:07:38;97234.34;;;0.61;100.00
706;BME280;21234;48.690;9.016;2023-01-25T12:10:23;97224.31;;;0.63;100.00
706;BME280;21234;48.690;9.016;2023-01-25T12:12:56;97222.78;;;0.69;100.00
706;BME280;21234;48.690;9.016;2023-01-25T12:15:40;97215.91;;;0.66;100.00
706;BME280;21234;48.690;9.016;2023-01-25T12:18:41;97208.75;;;0.75;100.00
706;BME280;21234;48.690;9.016;2023-01-25T12:21:20;97197.19;;;0.75;100.00
706;BME280;21234;48.690;9.016;2023-01-25T12:24:02;97194.03;;;0.63;100.00
706;BME280;21234;48.690;9.016;2023-01-25T12:26:38;97186.97;;;0.70;100.00
706;BME280;21234;48.690;9.016;2023-01-25T12:29:18;97185.31;;;0.53;100.00
706;BME280;21234;48.690;9.016;2023-01-25T12:31:53;97180.44;;;0.48;100.00
706;BME280;21234;48.690;9.016;2023-01-25T12:34:24;97169.94;;;0.55;100.00
706;BME280;21234;48.690;9.016;2023-01-25T12:36:55;97165.75;;;0.52;100.00
706;BME280;21234;48.690;9.016;2023-01-25T12:39:28;97160.91;;;0.56;100.00
706;BME280;21234;48.690;9.016;2023-01-25T12:42:03;97153.72;;;0.56;100.00
706;BME280;21234;48.690;9.016;2023-01-25T12:44:37;97149.38;;;0.63;100.00
706;BME280;21234;48.690;9.016;2023-01-25T12:47:10;97143.66;;;0.66;100.00
706;BME280;21234;48.690;9.016;2023-01-25T12:49:41;97139.66;;;0.71;100.00
706;BME280;21234;48.690;9.016;2023-01-25T12:52:20;97138.81;;;0.78;100.00
706;BME280;21234;48.690;9.016;2023-01-25T12:54:47;97144.34;;;0.77;100.00
706;BME280;21234;48.690;9.016;2023-01-25T12:57:20;97136.66;;;0.57;100.00
706;BME280;21234;48.690;9.016;2023-01-25T12:59:54;97142.34;;;0.62;100.00
706;BME280;21234;48.690;9.016;2023-01-25T13:02:42;97131.13;;;0.67;100.00
706;BME280;21234;48.690;9.016;2023-01-25T13:05:21;97130.78;;;0.78;100.00
706;BME280;21234;48.690;9.016;2023-01-25T13:08:02;97125.78;;;0.75;100.00
706;BME280;21234;48.690;9.016;2023-01-25T13:10:34;97111.88;;;0.72;100.00
706;BME280;21234;48.690;9.016;2023-01-25T13:13:22;97115.41;;;0.80;100.00
706;BME280;21234;48.690;9.016;2023-01-25T13:15:50;97112.38;;;0.83;100.00
706;BME280;21234;48.690;9.016;2023-01-25T13:18:37;97105.03;;;0.85;100.00
706;BME280;21234;48.690;9.016;2023-01-25T13:21:09;97106.53;;;0.80;100.00
706;BME280;21234;48.690;9.016;2023-01-25T13:23:39;97089.63;;;0.79;100.00
706;BME280;21234;48.690;9.016;2023-01-25T13:26:36;97108.19;;;0.81;100.00
706;BME280;21234;48.690;9.016;2023-01-25T13:32:13;97104.34;;;0.75;100.00
706;BME280;21234;48.690;9.016;2023-01-25T13:35:01;97093.84;;;0.57;100.00
706;BME280;21234;48.690;9.016;2023-01-25T13:37:30;97093.50;;;0.60;100.00
706;BME280;21234;48.690;9.016;2023-01-25T13:40:00;97087.16;;;0.61;100.00